Date,TemperatureHighF,TemperatureAvgF,TemperatureLowF,DewpointHighF,DewpointAvgF,DewpointLowF,HumidityHigh,HumidityAvg,HumidityLow,PressureMaxIn,PressureMinIn,WindSpeedMaxMPH,WindSpeedAvgMPH,GustSpeedMaxMPH,PrecipitationSumIn
2013-1-1,38.3,31.5,21.0,26.0,17.4,7.0,72,57,43,29.92,29.73,9,1,15,0.07
2013-1-2,31.0,20.3,10.2,12.0,7.2,1.0,80,58,45,30.09,29.88,6,1,10,0.01
2013-1-3,25.0,14.1,3.7,9.0,-2.0,-8.0,73,51,25,30.14,30.00,5,0,8,0.00
2013-1-4,39.1,26.0,11.7,23.0,16.6,8.0,90,69,47,29.99,29.80,5,0,12,0.06
2013-1-5,42.1,30.4,21.6,22.0,19.4,18.0,86,65,41,30.25,29.85,3,0,10,0.09
2013-1-6,42.8,31.5,22.7,29.0,24.7,19.0,92,77,53,30.22,29.92,4,0,9,0.04
2013-1-7,39.8,28.3,21.6,31.0,22.3,19.0,96,81,46,30.39,29.95,4,0,10,0.00
2013-1-8,46.7,33.4,20.8,28.0,25.2,19.0,95,74,46,30.37,30.25,5,1,15,0.00
2013-1-9,43.6,34.2,21.6,34.5,27.9,20.0,95,79,57,30.39,29.98,5,0,10,0.00
2013-1-10,46.8,40.1,30.6,27.0,22.5,20.0,71,51,36,30.52,30.04,9,1,16,0.00
2013-1-11,40.5,32.9,23.9,36.0,27.5,21.0,96,81,63,30.51,30.21,1,0,3,0.14
2013-1-12,44.9,40.8,36.3,43.0,40.1,35.0,98,97,94,30.23,30.11,1,0,4,0.03
2013-1-13,51.6,46.3,40.9,50.0,45.5,40.0,99,97,93,30.14,29.99,3,0,9,0.01
2013-1-14,60.9,51.7,42.3,53.0,43.4,29.0,97,76,38,30.23,29.88,4,0,8,0.00
2013-1-15,42.2,37.1,31.3,33.0,26.5,24.0,86,67,52,30.30,30.20,3,0,5,0.01
2013-1-16,35.2,32.8,31.0,32.0,30.3,23.0,97,91,63,30.23,29.79,1,0,4,0.15
2013-1-17,41.6,34.7,29.5,33.0,27.3,13.0,98,77,49,30.07,29.83,4,0,11,0.24
2013-1-18,30.1,22.4,16.5,14.0,-0.0,-8.0,62,39,25,30.45,30.05,6,1,16,0.00
2013-1-19,47.9,36.7,21.0,32.0,22.1,4.0,80,57,40,30.39,29.89,10,2,14,0.03
2013-1-20,55.4,42.2,28.7,33.0,24.4,7.0,73,51,30,29.91,29.54,12,2,19,0.00
2013-1-21,28.8,25.3,19.7,21.0,8.6,2.0,89,52,31,30.09,29.78,4,0,8,0.00
2013-1-22,26.1,20.4,12.4,22.0,5.9,-6.0,90,57,28,30.07,29.74,5,1,13,0.03
2013-1-23,16.1,11.0,6.9,0.0,-8.5,-14.0,64,42,27,30.14,30.04,5,1,12,0.00
2013-1-24,19.1,11.1,2.4,-8.0,-11.6,-15.0,52,36,24,30.22,30.04,7,1,14,0.00
2013-1-25,24.5,16.6,7.4,12.0,-7.5,-16.0,82,36,20,30.30,30.05,3,0,9,0.00
2013-1-26,24.7,16.7,6.7,12.0,1.2,-10.0,85,55,28,30.23,30.00,8,1,9,0.02
2013-1-27,30.1,19.7,10.5,4.0,-0.4,-4.0,63,43,26,30.45,30.22,7,1,11,0.00
2013-1-28,31.5,23.1,12.8,27.0,12.7,1.0,93,68,28,30.44,30.00,4,0,6,0.00
2013-1-29,33.8,30.6,26.6,32.0,28.4,25.0,96,91,83,30.18,29.99,1,0,3,0.11
2013-1-30,60.7,49.3,32.8,57.2,47.6,32.0,99,94,83,30.14,29.47,9,2,19,0.15
2013-1-31,59.8,48.2,31.3,58.0,36.8,13.0,95,68,38,29.58,28.98,20,3,28,0.42
2013-2-1,36.2,28.9,22.2,17.0,7.5,1.0,57,41,26,30.07,29.58,6,1,12,0.00
2013-2-2,30.1,24.5,16.7,12.0,5.1,-1.0,59,44,31,30.25,30.04,3,0,9,0.00
2013-2-3,27.9,24.6,20.5,21.0,19.1,10.0,89,80,51,30.05,29.71,3,0,7,0.01
2013-2-4,31.0,23.3,14.9,20.0,10.1,3.0,88,60,33,29.94,29.71,11,1,15,0.01
2013-2-5,28.1,24.5,19.9,23.0,13.3,7.0,90,63,51,30.02,29.92,3,0,5,0.00
2013-2-6,40.9,30.2,25.1,26.0,17.9,2.0,92,64,34,30.27,29.91,5,0,13,0.05
2013-2-7,30.7,24.3,16.9,13.0,3.3,-3.0,63,42,26,30.51,30.28,4,0,9,0.00
2013-2-8,32.8,29.5,19.9,32.0,25.5,12.0,97,85,60,30.47,29.53,5,1,9,0.05
2013-2-9,23.6,18.5,13.1,21.0,14.5,6.0,92,84,72,30.18,29.51,2,0,10,0.00
2013-2-10,36.5,18.6,2.2,22.0,9.7,-3.0,87,70,39,30.39,30.18,4,0,6,0.35
2013-2-11,43.8,30.7,10.7,43.0,29.2,8.0,99,94,86,30.35,29.59,3,0,8,0.47
2013-2-12,44.9,37.6,29.0,39.0,28.4,24.0,99,71,46,29.86,29.59,7,1,14,0.01
2013-2-13,45.5,32.8,22.9,27.0,23.5,20.0,92,71,40,29.86,29.67,6,0,8,0.00
2013-2-14,43.8,34.7,27.2,29.0,22.2,17.0,91,63,37,29.99,29.70,3,0,10,0.00
2013-2-15,49.8,36.5,24.2,34.0,29.8,22.0,97,79,50,30.00,29.89,6,1,13,0.00
2013-2-16,36.8,33.3,28.7,32.0,27.7,16.0,97,81,51,29.94,29.70,4,0,8,0.05
2013-2-17,31.0,22.1,18.1,22.0,10.6,-2.0,87,64,36,29.69,29.37,11,2,18,0.00
2013-2-18,32.7,22.7,14.4,3.0,-0.9,-5.0,49,37,23,30.15,29.67,10,1,18,0.12
2013-2-19,47.4,35.1,18.8,40.5,24.0,1.0,97,66,43,30.16,29.57,3,0,14,0.45
2013-2-20,38.8,32.3,25.6,38.0,18.8,8.0,98,61,37,29.77,29.52,8,1,19,0.01
2013-2-21,34.1,28.0,24.4,14.0,11.7,8.0,63,51,37,30.15,29.77,11,2,17,0.00
2013-2-22,38.9,30.6,23.0,25.0,20.2,14.0,80,66,51,30.38,30.18,3,0,7,0.00
2013-2-23,38.9,33.9,29.7,33.0,28.2,24.0,96,80,65,30.32,29.89,3,0,6,0.18
2013-2-24,38.0,34.6,30.7,38.0,33.8,30.0,98,97,96,29.89,29.66,6,1,8,0.80
2013-2-25,41.8,34.2,29.1,32.0,29.4,26.0,97,84,59,30.23,29.87,4,0,5,0.19
2013-2-26,46.7,35.2,25.6,34.0,27.6,24.0,97,76,42,30.32,30.14,3,0,6,0.00
2013-2-27,41.6,39.6,36.9,41.0,38.3,31.0,98,95,79,30.13,29.54,8,2,17,1.28
2013-2-28,45.4,37.3,31.0,38.0,34.9,30.0,98,91,72,29.63,29.51,2,0,4,0.00
2013-3-1,42.6,37.5,31.3,35.0,29.4,26.0,97,74,55,29.66,29.51,5,0,10,0.00
2013-3-2,44.9,38.1,32.8,28.0,25.9,24.0,75,62,48,29.66,29.61,4,0,7,0.00
2013-3-3,44.1,36.4,32.2,31.0,26.8,23.0,91,69,51,29.63,29.54,3,0,6,0.00
2013-3-4,41.2,34.9,29.1,28.0,22.4,19.0,84,61,44,29.72,29.56,8,1,16,0.00
2013-3-5,44.9,36.3,31.3,32.0,26.2,21.0,93,68,50,30.05,29.73,5,1,9,0.00
2013-3-6,39.5,37.2,33.5,36.0,33.1,29.0,93,85,67,30.09,30.02,9,3,18,0.22
2013-3-7,36.6,32.4,30.4,32.0,30.7,29.0,97,93,75,30.03,29.96,8,2,14,0.21
2013-3-8,37.0,31.8,29.4,32.0,29.3,24.0,97,91,62,30.12,29.91,5,0,9,0.06
2013-3-9,42.6,34.1,24.7,30.0,25.7,21.0,94,72,57,30.34,30.12,5,1,10,0.71
2013-3-10,43.6,33.5,24.1,32.0,28.4,23.0,96,83,60,30.40,30.31,4,0,6,0.00
2013-3-11,50.4,40.6,33.7,39.0,34.8,31.0,95,81,59,30.32,30.15,4,1,8,0.00
2013-3-12,53.8,46.6,36.9,52.0,45.3,36.0,99,95,80,30.16,29.71,6,1,12,0.52
2013-3-13,53.5,43.4,28.8,48.0,30.6,16.0,98,65,28,29.77,29.68,5,1,12,0.00
2013-3-14,36.8,29.8,23.0,23.0,13.5,4.0,87,54,32,29.83,29.69,8,1,14,0.00
2013-3-15,41.2,30.9,19.7,27.0,10.8,3.0,73,46,20,29.87,29.62,4,1,11,0.00
2013-3-16,40.3,33.7,27.2,27.0,14.8,5.0,78,49,24,29.85,29.66,4,0,9,0.00
2013-3-17,40.3,30.5,20.5,19.0,10.0,1.0,84,47,21,30.30,29.86,9,1,16,0.00
2013-3-18,40.6,29.5,17.5,27.0,7.7,-3.0,89,43,23,30.45,30.24,3,0,7,0.00
2013-3-19,37.2,32.9,29.0,36.0,31.5,27.0,96,94,89,30.23,29.55,5,2,13,0.73
2013-3-20,40.1,31.3,23.8,26.0,19.7,15.0,92,65,37,29.81,29.68,4,1,16,0.26
2013-3-21,36.0,30.0,22.7,28.0,22.1,15.0,92,74,45,29.82,29.59,5,0,8,0.04
2013-3-22,41.1,34.0,27.2,28.0,18.5,11.0,92,56,29,29.74,29.59,4,1,13,0.02
2013-3-23,44.8,35.9,27.2,22.0,17.8,13.0,76,50,29,29.78,29.63,7,1,15,0.00
2013-3-24,49.2,37.8,26.6,28.0,21.4,17.0,76,54,31,29.81,29.71,5,1,9,0.00
2013-3-25,43.8,37.0,29.5,34.0,30.0,26.0,88,76,67,29.75,29.49,7,2,11,0.00
2013-3-26,50.2,39.7,31.6,32.0,24.9,17.0,94,60,29,29.77,29.50,5,1,9,0.05
2013-3-27,55.4,41.1,24.2,29.0,22.1,19.0,86,52,27,29.84,29.72,7,1,10,0.00
2013-3-28,48.9,41.8,36.8,35.0,31.7,27.0,90,69,46,30.00,29.84,6,0,9,0.01
2013-3-29,58.9,44.6,28.4,36.0,29.6,24.0,97,61,28,30.03,29.94,5,0,9,0.00
2013-3-30,59.3,46.6,33.1,32.0,22.7,12.0,82,45,16,30.08,29.98,7,1,11,0.00
2013-3-31,61.6,43.2,25.8,42.0,25.6,19.0,92,58,20,30.10,29.72,7,1,14,0.04
2013-4-1,63.2,47.8,34.6,46.0,37.1,10.0,97,70,34,29.77,29.47,10,1,18,0.35
2013-4-2,41.6,34.5,26.3,16.0,11.4,6.0,61,39,24,29.93,29.77,10,2,20,0.00
2013-4-3,47.3,37.3,29.8,16.0,10.8,7.0,53,36,19,30.13,29.91,9,2,18,0.00
2013-4-4,58.0,42.5,25.4,27.0,15.5,8.0,66,38,14,30.28,30.05,9,1,12,0.00
2013-4-5,60.5,46.2,36.9,30.0,25.1,18.0,72,48,21,30.04,29.59,7,1,14,0.00
2013-4-6,47.6,38.4,28.7,25.0,9.0,0.0,58,32,15,30.31,29.85,9,2,16,0.00
2013-4-7,54.8,41.7,25.3,40.0,27.9,16.0,89,62,28,30.31,30.00,8,2,22,0.00
2013-4-8,67.8,52.8,41.3,44.0,39.3,33.0,96,65,28,30.09,29.94,4,1,8,0.00
2013-4-9,76.1,58.1,46.7,52.0,43.2,37.0,96,62,29,30.06,29.84,5,1,12,0.05
2013-4-10,68.8,53.4,44.5,48.0,44.5,41.0,96,75,45,30.00,29.84,4,0,5,0.08
2013-4-11,54.8,47.6,41.8,46.0,40.9,34.0,97,79,54,30.12,29.81,3,0,7,0.05
2013-4-12,41.6,39.4,37.8,39.0,36.0,29.0,96,88,63,30.15,29.76,6,2,10,0.49
2013-4-13,54.7,44.3,36.3,40.0,36.2,32.0,96,76,44,29.92,29.73,7,1,9,0.03
2013-4-14,53.2,45.0,32.7,40.0,30.7,23.0,96,61,34,30.20,29.92,8,1,13,0.00
2013-4-15,60.1,44.4,28.1,37.0,31.4,26.0,94,64,30,30.39,30.21,4,0,7,0.00
2013-4-16,63.2,50.7,34.7,48.0,40.1,34.0,97,70,41,30.40,30.07,11,2,23,0.00
2013-4-17,68.9,59.1,44.3,52.0,36.8,25.0,82,49,21,30.32,30.06,7,1,13,0.00
2013-4-18,68.1,51.9,35.5,43.0,33.4,24.0,96,56,25,30.41,30.15,6,1,15,0.00
2013-4-19,74.6,62.3,52.3,63.0,57.2,44.0,97,84,60,30.15,29.67,10,2,18,0.00
2013-4-20,64.2,54.9,45.1,62.0,41.2,24.0,96,65,32,30.20,29.60,7,1,17,0.50
2013-4-21,55.6,43.3,31.3,28.0,20.4,16.0,78,43,23,30.68,30.21,5,1,12,0.00
2013-4-22,55.6,41.9,29.0,35.0,29.1,22.0,94,64,28,30.74,30.58,6,1,12,0.00
2013-4-23,42.8,41.4,38.5,41.0,38.5,30.0,96,89,70,30.58,30.10,8,2,14,0.24
2013-4-24,75.8,54.5,42.1,50.0,44.3,41.0,96,73,30,30.08,29.80,6,2,12,0.01
2013-4-25,66.4,55.5,41.6,52.0,36.5,24.0,94,55,22,30.25,29.84,4,1,13,0.04
2013-4-26,63.9,49.7,37.0,41.0,36.0,30.0,92,62,33,30.41,30.25,8,1,8,0.00
2013-4-27,69.4,50.5,33.4,44.0,34.3,30.0,98,61,26,30.41,30.28,3,0,7,0.00
2013-4-28,75.1,56.4,35.5,40.0,32.7,26.0,95,48,21,30.32,30.20,9,1,14,0.00
2013-4-29,73.0,56.3,44.1,47.0,34.9,12.0,96,53,15,30.27,30.19,5,1,11,0.00
2013-4-30,74.6,55.4,38.9,42.0,29.1,20.0,91,45,14,30.36,30.25,4,1,7,0.00
2013-5-1,74.6,54.1,34.0,38.0,32.9,28.0,94,52,21,30.46,30.36,4,0,8,0.00
2013-5-2,81.6,55.6,40.1,47.0,40.0,34.0,97,64,18,30.47,30.34,5,1,9,0.00
2013-5-3,60.5,48.9,39.9,43.0,39.9,38.0,92,73,50,30.51,30.37,5,1,11,0.00
2013-5-4,61.3,46.8,34.1,45.0,36.8,33.0,98,72,36,30.37,30.30,5,1,9,0.00
2013-5-5,65.0,51.9,30.9,43.0,38.4,30.0,98,63,38,30.32,30.25,4,1,8,0.00
2013-5-6,74.9,53.9,35.9,50.0,44.3,34.0,97,74,36,30.29,30.14,3,0,7,0.00
2013-5-7,80.9,62.2,42.8,56.0,50.4,42.0,98,70,38,30.18,30.08,6,1,12,0.00
2013-5-8,77.0,63.4,50.2,64.0,57.2,49.0,98,82,53,30.18,30.04,4,1,11,0.25
2013-5-9,71.5,60.5,56.6,62.0,58.7,56.0,97,94,67,30.04,29.87,2,0,4,0.52
2013-5-10,83.8,67.2,54.4,59.0,55.3,49.0,98,70,32,29.95,29.88,5,0,8,0.00
2013-5-11,73.2,62.7,57.8,62.0,58.2,53.0,95,86,62,29.92,29.69,8,1,13,0.06
2013-5-12,74.7,61.5,47.7,60.0,50.8,29.0,96,72,39,29.80,29.55,5,1,9,0.03
2013-5-13,63.1,50.6,36.3,36.0,29.2,24.0,91,47,27,30.02,29.81,7,1,14,0.00
2013-5-14,61.2,50.4,37.0,33.0,29.4,25.0,83,48,27,30.05,29.97,6,1,11,0.00
2013-5-15,67.9,50.3,32.8,52.0,39.4,29.0,96,72,27,30.06,29.67,6,1,16,0.03
2013-5-16,84.1,65.7,46.2,54.0,42.5,34.0,98,54,18,29.79,29.63,7,1,13,0.00
2013-5-17,72.1,59.2,45.8,48.0,41.3,37.0,87,55,31,30.21,29.80,6,1,13,0.00
2013-5-18,77.6,59.1,40.9,49.0,42.7,34.0,98,61,23,30.30,30.22,4,0,7,0.00
2013-5-19,76.5,58.4,45.7,54.0,49.5,44.0,96,75,35,30.34,30.23,3,0,9,0.08
2013-5-20,85.7,69.1,55.4,65.0,60.2,54.0,98,77,44,30.22,29.91,4,1,11,0.03
2013-5-21,87.0,63.1,51.4,68.0,57.7,50.0,98,85,51,30.00,29.86,3,0,9,0.17
2013-5-22,69.9,58.2,50.5,62.0,54.5,50.0,98,88,69,30.03,29.89,3,0,8,0.05
2013-5-23,76.5,66.3,55.3,69.0,62.8,54.0,98,89,68,29.92,29.82,12,1,15,0.08
2013-5-24,70.6,62.7,49.9,67.0,61.2,49.0,98,95,80,29.81,29.66,4,0,11,0.61
2013-5-25,52.3,48.1,41.2,51.0,47.1,39.0,98,96,93,29.80,29.70,4,1,9,0.42
2013-5-26,60.1,48.8,39.5,42.0,38.8,36.0,95,71,43,30.10,29.72,7,2,20,0.02
2013-5-27,76.0,57.2,37.3,45.0,38.1,31.0,98,57,20,30.17,30.07,6,1,12,0.00
2013-5-28,79.8,60.8,40.3,54.0,45.0,38.0,98,63,22,30.23,30.16,3,0,9,0.00
2013-5-29,74.6,63.6,58.1,67.0,60.6,54.0,98,90,72,30.19,29.99,3,0,6,1.02
2013-5-30,91.4,75.7,61.0,70.0,66.1,61.0,99,76,44,30.08,30.00,6,0,8,0.01
2013-5-31,98.7,79.9,62.0,71.0,65.3,62.0,99,66,31,30.09,29.95,5,0,9,0.00
2013-6-1,96.3,79.0,62.9,66.1,64.0,61.0,96,64,35,29.99,29.87,7,1,13,0.00
2013-6-2,91.0,76.1,65.5,68.0,64.8,62.0,91,70,44,29.90,29.76,9,1,20,0.00
2013-6-3,75.4,68.0,60.4,67.0,64.4,57.0,96,88,73,29.85,29.76,2,0,8,0.44
2013-6-4,75.3,60.4,46.2,56.0,45.4,42.0,92,61,34,30.09,29.83,4,0,9,0.00
2013-6-5,79.9,62.7,45.5,52.0,46.0,41.0,97,60,27,30.19,30.09,4,0,11,0.00
2013-6-6,78.8,64.5,52.2,55.0,49.6,41.0,94,62,33,30.19,30.10,4,0,8,0.01
2013-6-7,59.9,56.2,53.9,59.0,55.3,53.0,98,96,90,30.10,29.80,3,0,6,2.69
2013-6-8,79.8,63.8,54.2,65.0,57.9,54.0,99,83,54,30.00,29.60,4,1,11,0.71
2013-6-9,83.8,68.5,54.2,59.0,55.7,52.0,98,68,34,30.16,30.01,4,1,8,0.00
2013-6-10,73.3,62.3,53.2,63.0,57.9,52.0,98,87,57,30.20,30.02,1,0,5,0.61
2013-6-11,66.0,59.6,55.4,61.0,57.8,54.0,99,94,79,30.01,29.57,2,0,6,1.53
2013-6-12,73.0,62.5,55.7,59.0,55.1,52.0,99,79,49,29.81,29.56,8,1,19,0.00
2013-6-13,67.6,56.3,49.1,59.0,53.7,48.0,98,91,70,29.82,29.66,3,0,5,0.63
2013-6-14,70.1,59.4,52.3,58.0,53.7,48.0,98,84,50,29.76,29.62,3,0,9,1.32
2013-6-15,83.4,66.2,50.4,55.0,48.4,42.0,99,60,24,29.94,29.76,4,0,9,0.00
2013-6-16,78.6,65.1,48.9,62.0,54.6,48.0,97,72,38,29.95,29.72,5,0,8,0.00
2013-6-17,91.2,70.4,56.0,64.0,59.6,55.0,99,75,30,29.92,29.78,5,0,16,0.71
2013-6-18,80.3,64.6,57.5,67.0,60.1,57.0,99,87,54,29.95,29.89,3,0,7,0.58
2013-6-19,79.8,64.8,54.8,59.0,53.1,46.0,99,71,30,30.15,29.89,2,0,7,0.01
2013-6-20,84.3,66.8,49.4,56.0,51.4,45.0,99,64,26,30.26,30.15,3,0,8,0.00
2013-6-21,86.5,71.1,57.0,66.0,59.4,53.0,91,69,45,30.27,30.19,4,0,7,0.00
2013-6-22,88.8,71.7,58.3,63.0,58.4,55.0,93,66,37,30.23,30.13,5,0,9,0.00
2013-6-23,93.6,77.0,63.9,71.0,64.4,56.0,87,67,46,30.17,30.02,5,1,12,0.00
2013-6-24,97.5,81.9,69.4,72.0,69.2,66.0,95,69,40,30.04,29.88,4,1,10,0.07
2013-6-25,95.4,79.6,66.9,71.0,67.6,65.0,98,71,38,29.93,29.73,5,0,12,0.01
2013-6-26,89.3,76.3,67.6,72.0,68.7,66.0,94,79,50,29.86,29.73,4,0,8,0.00
2013-6-27,69.4,65.6,62.7,66.0,63.7,62.0,97,94,84,29.87,29.76,2,0,4,0.00
2013-6-28,82.6,70.7,62.4,73.0,67.8,62.0,99,91,68,29.76,29.50,13,1,13,0.57
2013-6-29,85.3,74.2,69.6,71.2,68.9,66.0,97,85,58,29.73,29.52,5,0,12,0.11
2013-6-30,85.9,75.3,69.6,72.0,69.5,67.8,95,83,61,29.95,29.73,4,1,9,0.12
2013-7-1,86.5,75.4,70.9,75.0,71.9,70.0,98,90,64,30.09,29.95,7,0,11,0.07
2013-7-2,84.5,74.4,64.5,75.0,69.8,61.7,95,86,68,30.21,30.09,4,0,10,0.00
2013-7-3,91.0,76.4,62.9,74.0,68.7,61.0,98,78,54,30.21,30.14,3,1,10,0.01
2013-7-4,97.3,83.0,72.0,76.0,72.4,70.0,96,73,46,30.21,30.10,4,1,10,0.00
2013-7-5,98.0,84.8,74.4,75.0,72.1,69.0,89,68,41,30.17,30.04,6,1,8,0.00
2013-7-6,94.9,81.6,73.2,74.0,71.8,70.0,93,74,47,30.08,29.98,4,0,9,0.00
2013-7-7,97.1,79.5,68.4,76.0,71.8,68.0,98,80,45,30.03,29.91,3,0,6,0.42
2013-7-8,89.7,76.1,66.3,76.0,71.5,65.0,99,87,61,30.07,29.91,2,0,5,0.04
2013-7-9,75.4,69.0,65.2,68.0,65.8,64.0,98,90,74,30.11,30.05,4,0,4,0.00
2013-7-10,88.6,75.3,67.1,74.0,70.5,65.0,97,86,61,30.07,29.81,3,0,14,0.01
2013-7-11,82.0,75.0,68.9,74.0,71.9,68.0,98,90,72,29.92,29.79,1,0,5,0.25
2013-7-12,74.7,69.0,64.2,69.0,62.9,59.0,98,82,63,30.19,29.92,4,0,9,0.01
2013-7-13,78.3,70.1,64.8,71.0,67.1,62.0,97,90,73,30.31,30.20,2,0,4,0.07
2013-7-14,94.5,80.3,71.1,75.0,72.3,70.0,98,79,45,30.31,30.20,2,0,5,0.00
2013-7-15,96.3,80.7,69.9,76.0,72.0,69.0,98,78,44,30.21,30.10,2,0,5,0.00
2013-7-16,97.3,81.5,67.6,72.0,69.1,66.0,97,70,38,30.17,30.10,0,0,3,0.00
2013-7-17,97.8,81.9,68.4,74.0,69.9,67.0,97,70,39,30.18,30.02,3,0,8,0.00
2013-7-18,97.5,84.0,72.7,75.0,72.1,69.0,93,70,43,30.02,29.94,2,0,6,0.00
2013-7-19,100.4,86.1,74.0,76.2,73.7,70.0,97,70,38,29.95,29.73,5,1,13,0.00
2013-7-20,98.2,83.8,74.4,76.0,73.9,70.0,94,74,43,29.81,29.64,6,0,10,0.00
2013-7-21,87.6,76.3,68.6,71.0,65.5,62.0,91,70,47,29.99,29.81,2,0,6,0.00
2013-7-22,85.9,73.9,66.3,70.0,67.6,66.0,98,82,57,30.01,29.89,3,0,5,0.00
2013-7-23,82.6,73.5,70.1,77.0,71.7,68.0,98,94,80,29.89,29.53,2,0,7,0.76
2013-7-24,89.0,77.6,69.6,74.0,68.3,59.0,99,75,54,29.93,29.59,4,0,7,0.00
2013-7-25,68.6,61.1,59.0,60.0,55.8,48.0,98,83,62,30.09,29.95,1,0,5,0.30
2013-7-26,69.4,63.8,59.9,68.0,63.3,59.0,99,98,92,30.05,29.93,2,0,7,0.46
2013-7-27,88.2,71.0,57.5,69.0,63.3,57.0,99,80,45,30.06,30.01,3,0,6,0.00
2013-7-28,88.8,72.5,65.6,72.0,68.1,64.0,97,87,57,30.02,29.97,1,0,5,0.01
2013-7-29,85.1,72.9,64.7,73.0,68.8,64.0,98,88,64,30.04,29.98,3,0,7,0.22
2013-7-30,86.1,72.0,60.1,68.0,60.4,55.0,98,71,35,30.10,30.04,4,0,7,0.00
2013-7-31,85.5,70.4,57.6,64.0,60.5,56.0,99,74,39,30.14,30.05,0,0,3,0.00
2013-8-1,85.5,69.9,61.0,67.0,62.2,60.0,98,79,46,30.07,29.90,2,0,9,0.00
2013-8-2,86.7,71.7,64.0,70.0,63.3,59.0,98,77,44,29.90,29.80,2,0,6,0.20
2013-8-3,79.0,70.5,63.5,65.0,62.8,60.0,97,78,56,29.88,29.79,4,0,9,0.00
2013-8-4,84.1,68.5,56.0,61.0,57.3,53.0,98,72,36,29.89,29.77,4,0,7,0.00
2013-8-5,79.8,63.9,51.7,57.0,48.7,39.0,98,64,27,30.05,29.90,5,0,8,0.00
2013-8-6,84.0,64.5,47.9,56.0,51.6,47.0,98,68,31,30.16,30.05,2,0,5,0.00
2013-8-7,84.3,67.7,53.5,62.0,53.7,48.0,99,67,30,30.19,30.12,4,0,10,0.00
2013-8-8,80.3,71.1,63.5,71.0,65.7,54.0,96,83,69,30.15,30.02,5,0,8,0.12
2013-8-9,74.2,72.4,71.1,74.0,71.1,69.0,99,96,91,30.04,29.76,5,0,11,1.92
2013-8-10,86.5,73.8,58.9,72.0,61.6,51.0,99,70,34,30.01,29.80,6,0,10,0.00
2013-8-11,84.3,66.5,52.5,59.0,54.7,49.0,98,71,31,30.09,30.01,2,0,6,0.00
2013-8-12,87.0,70.4,57.5,65.0,59.4,53.0,98,73,33,30.04,29.93,4,0,6,0.00
2013-8-13,73.9,67.3,62.6,68.0,64.5,62.0,98,91,72,29.94,29.69,2,0,4,0.01
2013-8-14,77.6,66.6,58.0,63.0,54.3,50.0,98,68,40,29.96,29.67,6,1,13,0.00
2013-8-15,80.3,63.6,49.9,56.0,51.4,47.0,99,70,32,30.12,29.97,5,0,9,0.00
2013-8-16,83.6,66.1,51.4,58.0,54.4,51.0,99,71,37,30.20,30.11,4,0,7,0.00
2013-8-17,83.0,66.9,53.2,61.0,56.9,52.0,99,74,41,30.28,30.20,2,0,4,0.00
2013-8-18,85.7,68.5,57.8,64.0,59.9,55.0,98,77,36,30.28,30.10,1,0,5,0.00
2013-8-19,85.9,70.1,55.7,64.0,59.6,55.0,99,73,35,30.10,29.96,3,0,8,0.00
2013-8-20,90.5,73.5,60.4,65.0,61.8,57.0,98,71,35,30.10,29.99,2,0,6,0.00
2013-8-21,92.7,73.8,59.0,66.0,62.9,59.0,99,73,38,30.15,30.04,2,0,6,0.00
2013-8-22,88.6,74.3,62.4,71.0,66.9,62.0,97,79,51,30.05,29.84,4,0,8,0.00
2013-8-23,83.8,71.4,60.9,69.0,61.0,55.0,96,72,43,30.11,29.83,2,0,5,0.00
2013-8-24,80.1,65.5,52.5,53.0,47.7,41.0,89,56,26,30.34,30.12,3,0,7,0.00
2013-8-25,86.7,66.4,49.4,58.0,52.3,49.0,99,67,28,30.36,30.20,3,0,6,0.00
2013-8-26,82.8,71.1,61.3,66.0,61.3,54.0,86,72,49,30.20,29.89,3,0,10,0.00
2013-8-27,83.2,71.6,63.5,71.0,66.8,62.0,98,86,58,29.90,29.84,1,0,4,0.09
2013-8-28,88.6,70.3,59.5,68.0,63.4,59.0,99,82,42,29.98,29.86,3,0,5,0.00
2013-8-29,66.0,63.2,60.5,65.0,61.5,58.0,97,94,89,30.07,29.96,2,0,6,0.02
2013-8-30,83.2,69.6,60.9,68.0,62.9,58.0,95,80,57,30.03,29.84,3,0,9,0.00
2013-8-31,83.2,73.6,66.4,74.0,70.1,66.0,98,89,70,29.84,29.80,2,0,7,0.01
2013-9-1,78.5,72.7,68.9,76.0,71.4,68.0,99,95,90,29.91,29.81,2,0,5,1.64
2013-9-2,82.0,74.1,68.6,76.0,71.9,68.0,99,93,75,29.88,29.72,3,0,13,0.36
2013-9-3,84.3,72.8,63.2,71.0,68.4,62.0,98,87,56,29.82,29.70,2,0,7,0.00
2013-9-4,83.0,67.9,55.3,61.0,57.5,54.0,99,74,41,29.93,29.82,3,0,10,0.00
2013-9-5,68.4,60.8,51.6,65.0,57.7,51.0,98,90,69,30.14,29.88,3,0,5,0.05
2013-9-6,72.0,56.1,43.3,51.0,44.4,38.0,98,71,30,30.25,30.11,5,0,5,0.01
2013-9-7,80.9,62.5,45.1,57.0,50.3,44.0,99,69,34,30.10,29.87,3,0,9,0.00
2013-9-8,79.6,65.0,49.4,61.0,52.1,39.0,92,66,37,30.09,29.75,5,0,17,0.00
2013-9-9,73.0,56.4,40.8,51.0,45.1,40.0,98,70,34,30.24,30.09,6,0,7,0.00
2013-9-10,76.0,66.1,53.9,69.0,61.5,50.0,94,85,77,30.17,30.04,4,0,9,0.02
2013-9-11,98.0,79.6,67.1,77.0,70.9,67.0,99,78,42,30.07,29.95,4,0,9,0.00
2013-9-12,89.0,76.4,69.1,73.0,70.0,68.0,97,82,58,29.98,29.69,5,1,13,0.37
2013-9-13,81.1,69.4,59.3,70.0,65.3,56.0,99,87,56,29.76,29.57,1,0,4,0.20
2013-9-14,68.4,60.7,50.5,55.0,52.6,49.0,96,76,59,30.06,29.76,3,0,7,0.00
2013-9-15,74.0,57.7,45.1,55.0,49.6,45.0,99,78,44,30.17,30.07,2,0,6,0.00
2013-9-16,66.9,56.6,48.9,57.0,50.9,38.0,96,82,59,30.24,30.02,1,0,8,0.02
2013-9-17,63.5,51.1,40.8,45.4,39.0,34.0,96,66,38,30.42,30.25,2,0,7,0.00
2013-9-18,75.8,55.3,38.5,52.0,43.9,38.0,99,72,31,30.33,30.15,3,0,5,0.00
2013-9-19,83.0,60.7,44.1,56.0,50.5,43.0,99,74,34,30.15,30.03,2,0,4,0.00
2013-9-20,84.7,62.4,46.0,59.0,52.3,46.0,99,75,31,30.09,30.00,1,0,6,0.00
2013-9-21,75.3,66.0,54.5,65.0,59.9,54.0,99,82,60,30.03,29.74,5,0,12,0.00
2013-9-22,73.9,64.5,50.2,67.0,57.6,46.0,97,80,53,29.83,29.62,9,1,14,0.39
2013-9-23,65.5,52.8,42.5,46.0,42.1,39.0,93,69,42,30.00,29.83,2,0,8,0.00
2013-9-24,68.3,52.0,37.2,47.0,41.9,36.0,98,72,41,30.00,29.81,4,0,8,0.00
2013-9-25,69.3,54.2,41.3,51.0,46.3,41.0,99,77,46,29.98,29.88,2,0,5,0.00
2013-9-26,67.6,57.0,52.5,51.0,49.0,46.0,91,76,49,30.12,29.98,2,0,7,0.00
2013-9-27,67.9,57.2,46.7,53.0,50.0,46.0,96,78,58,30.26,30.12,2,0,7,0.00
2013-9-28,77.4,55.6,42.5,56.0,49.1,42.0,99,82,45,30.32,30.26,0,0,5,0.00
2013-9-29,72.0,54.3,45.7,58.0,48.6,45.0,99,84,47,30.27,30.12,1,0,5,0.00
2013-9-30,70.8,56.7,46.1,53.0,49.4,42.0,98,80,39,30.12,29.97,2,0,4,0.00
2013-10-1,78.8,57.7,41.8,56.0,49.4,41.0,99,78,37,29.97,29.84,2,0,4,0.00
2013-10-2,82.8,63.9,49.1,60.0,55.4,49.0,99,77,44,29.95,29.83,7,0,8,0.00
2013-10-3,81.6,61.4,47.7,60.0,51.1,44.0,99,74,28,30.08,29.95,0,0,6,0.00
2013-10-4,62.0,55.4,47.4,60.0,54.1,47.0,98,95,80,30.08,30.03,0,0,1,0.26
2013-10-5,69.4,61.0,55.7,61.0,57.7,55.0,99,89,65,30.12,30.05,0,0,3,0.03
2013-10-6,59.6,57.3,55.1,58.0,56.5,54.7,99,97,93,30.21,30.11,1,0,6,0.47
2013-10-7,75.8,66.3,56.6,71.0,63.7,56.0,99,92,77,30.12,29.83,9,1,16,0.06
2013-10-8,68.8,56.8,44.8,55.0,45.2,38.0,91,68,40,30.36,29.91,4,0,8,0.00
2013-10-9,63.5,50.0,40.6,47.0,43.3,40.0,98,80,50,30.46,30.36,3,0,6,0.00
2013-10-10,64.5,52.4,41.3,54.0,48.7,41.0,99,88,65,30.36,30.17,2,0,5,0.00
2013-10-11,70.6,56.9,49.1,55.0,50.6,43.0,97,82,52,30.17,30.09,2,0,4,0.00
2013-10-12,61.2,54.9,47.7,57.0,50.8,-99.9,98,90,80,30.38,30.14,3,0,7,0.01
2013-10-13,62.6,51.6,39.3,50.0,45.6,38.0,97,81,55,30.44,30.36,2,0,8,0.00
2013-10-14,67.8,48.2,31.6,49.0,40.4,31.0,99,78,36,30.41,30.25,0,0,2,0.00
2013-10-15,70.4,56.6,45.8,52.0,48.8,45.0,98,77,49,30.26,30.18,0,0,2,0.00
2013-10-16,63.5,54.0,44.8,56.0,51.5,44.0,99,92,73,30.18,29.91,0,0,5,0.00
2013-10-17,71.1,60.6,51.6,61.0,56.6,51.0,99,88,65,29.92,29.73,5,0,9,0.01
2013-10-18,70.4,60.0,44.1,62.0,50.7,42.0,98,75,42,29.91,29.61,4,1,14,0.05
2013-10-19,69.1,52.7,37.6,49.0,42.4,37.0,99,72,35,29.98,29.76,0,0,11,0.00
2013-10-20,64.7,52.9,38.3,49.0,39.1,28.0,97,64,28,30.02,29.69,6,1,14,0.00
2013-10-21,68.4,50.4,34.9,44.0,38.6,34.0,97,69,34,30.12,30.01,4,0,9,0.00
2013-10-22,70.4,54.3,42.5,52.0,45.4,39.0,99,75,41,30.00,29.70,4,0,10,0.00
2013-10-23,52.3,44.2,35.5,40.0,35.2,30.0,96,73,44,29.80,29.59,0,0,2,0.00
2013-10-24,55.3,42.7,33.1,38.0,28.9,21.0,95,63,30,29.88,29.63,11,0,11,0.00
2013-10-25,50.1,38.3,28.8,33.0,27.9,25.0,95,69,41,30.16,29.89,5,0,8,0.00
2013-10-26,55.6,41.6,26.6,37.0,28.8,23.0,97,66,29,30.16,29.87,7,0,18,0.00
2013-10-27,57.3,47.1,36.0,41.0,33.7,27.0,95,62,39,30.06,29.82,8,1,14,0.03
2013-10-28,60.5,43.2,28.2,36.0,30.0,24.0,97,65,34,30.34,30.06,5,0,12,0.00
2013-10-29,52.9,37.6,29.0,32.0,25.7,19.0,94,66,31,30.43,30.34,2,0,4,0.00
2013-10-30,51.3,38.3,28.8,44.0,36.2,28.0,97,92,66,30.36,30.18,0,0,4,0.03
2013-10-31,62.3,48.9,31.8,60.0,46.7,31.0,99,92,78,30.23,29.81,8,0,13,0.03
2013-11-1,70.6,63.9,55.4,63.0,57.7,53.0,96,81,64,29.79,29.46,8,2,25,0.12
2013-11-2,67.6,54.7,46.7,53.0,46.1,38.0,98,76,34,29.71,29.58,2,0,5,0.00
2013-11-3,51.7,41.3,31.0,46.0,31.4,14.7,94,70,41,30.40,29.71,3,0,8,0.04
2013-11-4,43.5,32.1,24.1,22.0,19.0,16.0,90,61,34,30.70,30.41,3,0,9,0.00
2013-11-5,52.2,35.6,22.9,32.0,26.0,21.0,94,72,38,30.71,30.52,0,0,7,0.00
2013-11-6,60.5,49.0,35.9,51.0,41.3,31.0,91,76,48,30.51,30.04,8,1,16,0.00
2013-11-7,68.3,53.8,37.5,59.0,50.5,34.0,96,89,63,30.04,29.67,6,1,15,0.28
2013-11-8,49.9,37.9,27.6,34.0,27.2,21.0,96,68,44,30.09,29.81,9,1,15,0.01
2013-11-9,46.4,36.6,26.6,28.0,23.3,19.0,83,61,35,30.20,30.04,6,0,15,0.00
2013-11-10,55.0,45.2,38.8,46.0,35.8,29.0,97,71,48,30.03,29.73,3,0,10,0.06
2013-11-11,51.0,45.3,38.6,34.0,26.9,21.0,60,50,32,30.09,29.84,6,0,11,0.00
2013-11-12,49.6,36.2,27.0,39.0,25.4,14.0,93,67,51,30.18,29.88,10,1,16,0.12
2013-11-13,36.5,28.6,22.9,15.0,13.1,10.0,71,54,35,30.27,30.17,4,0,9,0.00
2013-11-14,50.4,37.6,26.9,24.0,18.9,14.0,70,49,27,30.17,30.03,4,0,11,0.00
2013-11-15,60.2,41.8,26.1,35.0,24.4,17.0,84,56,20,30.20,30.09,3,0,10,0.00
2013-11-16,61.6,43.3,32.2,36.0,29.9,21.0,91,65,24,30.31,30.18,2,0,5,0.00
2013-11-17,61.0,47.7,30.9,58.0,44.1,29.0,99,88,61,30.31,29.84,3,0,9,0.07
2013-11-18,66.3,57.3,44.1,62.0,48.7,34.0,99,76,40,29.83,29.52,7,1,13,0.26
2013-11-19,45.4,39.8,31.0,34.0,20.9,15.0,72,48,33,30.26,29.64,9,1,16,0.00
2013-11-20,40.3,30.5,21.6,17.0,13.1,8.0,80,51,27,30.62,30.26,4,0,10,0.00
2013-11-21,47.1,32.3,18.4,28.0,19.7,15.0,89,64,31,30.63,30.38,0,0,6,0.00
2013-11-22,47.6,43.3,37.2,47.0,41.2,29.0,98,92,71,30.38,29.81,0,0,1,0.20
2013-11-23,46.4,40.4,29.7,45.0,25.4,12.0,98,58,30,29.89,29.77,8,1,12,0.00
2013-11-24,29.5,24.5,20.3,19.0,1.2,-9.0,71,38,22,30.17,29.79,14,2,25,0.00
2013-11-25,33.4,24.5,16.4,16.0,0.8,-10.0,57,37,17,30.36,30.18,6,0,10,0.00
2013-11-26,42.6,36.8,30.7,39.0,23.3,15.0,97,61,38,30.32,30.03,2,0,4,0.12
2013-11-27,61.8,51.8,36.6,61.0,50.9,33.0,99,97,87,30.01,29.19,15,1,30,2.15
2013-11-28,37.0,30.7,22.9,32.0,14.7,4.0,84,53,31,30.43,29.45,8,1,19,0.00
2013-11-29,34.6,26.9,21.4,15.0,9.6,1.0,75,50,32,30.73,30.43,4,0,9,0.00
2013-11-30,34.4,24.8,15.6,22.0,12.8,5.0,75,61,46,30.79,30.44,2,0,5,0.00
2013-12-1,46.4,37.6,29.0,44.0,34.8,22.0,97,89,73,30.43,30.00,1,0,4,0.27
2013-12-2,40.5,37.8,36.3,40.0,36.9,36.0,98,97,93,29.99,29.90,1,0,3,0.00
2013-12-3,47.1,36.8,27.9,36.0,33.1,27.0,97,88,57,29.94,29.82,3,0,7,0.00
2013-12-4,45.4,32.6,25.0,33.0,26.9,24.0,97,82,48,30.19,29.94,2,0,7,0.01
2013-12-5,55.0,43.8,28.1,55.0,41.5,27.0,99,91,77,30.20,29.90,4,0,8,0.00
2013-12-6,55.6,49.1,35.5,55.0,46.2,34.0,97,89,73,30.11,29.85,3,0,7,0.35
2013-12-7,40.6,33.1,24.5,35.0,27.8,22.0,97,82,49,30.44,30.07,3,0,10,0.15
2013-12-8,31.6,27.4,20.2,23.0,16.0,12.0,92,64,46,30.59,30.45,3,0,3,0.00
2013-12-9,38.9,33.5,27.2,38.0,31.7,16.0,98,93,56,30.49,29.85,2,0,5,0.33
2013-12-10,33.4,30.1,22.4,33.0,29.2,19.0,98,96,88,29.99,29.77,1,0,3,0.05
2013-12-11,30.1,24.4,18.9,20.0,17.9,17.0,92,77,63,30.22,29.99,4,0,8,0.04
2013-12-12,26.1,19.1,10.5,17.0,7.3,0.0,89,62,35,30.27,30.08,4,0,12,0.00
2013-12-13,30.1,22.3,11.7,14.0,9.2,5.0,78,58,44,30.37,30.00,6,1,10,0.00
2013-12-14,28.7,17.5,11.4,28.0,6.6,-7.0,95,64,41,30.60,30.13,3,0,10,0.00
2013-12-15,37.3,28.5,21.8,37.0,26.4,19.0,97,92,84,30.11,29.38,6,1,11,0.09
2013-12-16,29.8,22.7,13.1,22.0,11.7,4.0,91,65,36,30.20,29.75,6,0,15,0.03
2013-12-17,21.8,14.0,2.6,19.0,9.8,-2.0,91,83,60,30.27,29.93,3,0,6,0.00
2013-12-18,34.1,23.7,16.9,22.0,17.5,14.0,90,78,54,30.08,29.86,4,0,14,0.12
2013-12-19,43.5,30.8,18.1,28.0,22.7,16.0,90,74,45,30.11,29.93,5,0,15,0.19
2013-12-20,51.9,38.6,28.8,37.0,31.1,26.0,91,76,51,30.11,29.89,6,0,9,0.37
2013-12-21,54.5,46.0,37.9,46.0,42.2,33.0,97,87,72,29.96,29.85,2,0,8,0.01
2013-12-22,64.7,46.6,36.6,60.0,45.1,35.0,99,94,73,30.00,29.77,4,0,12,0.01
2013-12-23,37.2,35.3,33.5,37.0,34.8,33.0,98,98,97,30.07,29.93,2,0,6,0.64
2013-12-24,36.9,32.4,27.2,37.0,21.4,15.0,99,66,45,30.17,30.02,3,0,9,0.00
2013-12-25,27.0,19.3,14.0,17.0,3.5,-3.0,79,51,37,30.52,30.17,6,1,15,0.00
2013-12-26,35.2,25.9,15.2,32.0,21.6,9.0,94,83,68,30.48,30.05,3,0,3,0.01
2013-12-27,34.7,25.3,17.3,22.0,18.6,15.0,93,77,51,30.26,30.17,6,0,8,0.02
2013-12-28,47.6,31.5,21.4,28.0,23.1,19.0,90,74,41,30.20,29.97,3,0,9,0.00
2013-12-29,42.2,35.3,26.6,41.1,32.9,24.0,98,91,67,30.02,29.35,3,0,11,1.09
2013-12-30,39.8,31.9,20.5,37.0,22.7,7.0,99,72,38,30.14,29.48,7,0,11,0.01
2013-12-31,25.8,19.4,14.4,13.0,4.1,-5.0,76,53,39,30.16,30.00,4,0,5,0.00
2014-1-1,28.7,20.9,14.3,12.0,6.5,3.0,76,55,37,30.38,30.17,6,0,10,0.00
2014-1-2,25.7,16.6,2.8,23.0,12.6,-2.0,93,84,70,30.35,29.81,5,1,11,0.00